Time;durP1;ratioP1;P1;durP2;ratioP2;P2;SDS_P1;SDS_P2;PMS_P1;PMS_P2;Temp;Humidity;BMP_temperature;BMP_pressure;BME280_temperature;BME280_humidity;BME280_pressure;Samples;Min_cycle;Max_cycle;Signal;HPM_P1;HPM_P2
2022/01/11 00:01:49;;;;;;;4.45;1.38;;;25.30;74.00;;;;;;4988678;28;20041;-74
2022/01/11 00:04:17;;;;;;;3.30;1.40;;;25.30;74.00;;;;;;4989286;28;20026;-69
2022/01/11 00:06:48;;;;;;;8.27;3.35;;;25.30;74.00;;;;;;4996094;28;20052;-72
2022/01/11 00:09:33;;;;;;;3.78;1.00;;;25.30;74.00;;;;;;4996527;28;20036;-74
2022/01/11 00:12:00;;;;;;;5.88;1.35;;;25.30;73.90;;;;;;4989556;28;20027;-70
2022/01/11 00:14:26;;;;;;;10.82;1.80;;;25.30;73.90;;;;;;4990342;28;20295;-73
2022/01/11 00:16:53;;;;;;;7.57;1.70;;;25.30;73.90;;;;;;4993233;28;20025;-69
2022/01/11 00:19:20;;;;;;;7.35;2.33;;;25.30;74.00;;;;;;4994363;28;20350;-71
2022/01/11 00:21:48;;;;;;;3.53;1.60;;;25.20;74.00;;;;;;4997832;28;20034;-68
2022/01/11 00:24:32;;;;;;;7.60;1.55;;;25.30;74.00;;;;;;4996312;28;20026;-71
2022/01/11 00:27:09;;;;;;;3.30;1.00;;;25.20;73.90;;;;;;4989654;28;20035;-69
2022/01/11 00:29:40;;;;;;;2.80;1.33;;;25.20;73.90;;;;;;4995263;28;20428;-70
2022/01/11 00:32:12;;;;;;;3.50;1.52;;;25.20;74.50;;;;;;5000413;28;20065;-72
2022/01/11 00:34:50;;;;;;;3.15;0.90;;;25.20;73.80;;;;;;4990155;28;20027;-69
2022/01/11 00:37:19;;;;;;;4.97;1.58;;;25.20;73.80;;;;;;4994934;28;20032;-71
2022/01/11 00:39:45;;;;;;;3.00;1.20;;;25.20;73.90;;;;;;4993057;28;20022;-73
2022/01/11 00:42:16;;;;;;;2.13;0.98;;;25.20;73.80;;;;;;4997218;28;20509;-72
2022/01/11 00:44:43;;;;;;;3.72;1.17;;;25.20;73.90;;;;;;4999915;28;20022;-70
2022/01/11 00:47:10;;;;;;;2.10;1.45;;;25.20;73.90;;;;;;4989258;28;20026;-72
2022/01/11 00:49:39;;;;;;;4.70;1.30;;;25.20;73.90;;;;;;4993937;28;20030;-71
2022/01/11 00:52:07;;;;;;;3.53;1.42;;;25.20;73.90;;;;;;4992685;28;20406;-74
2022/01/11 00:54:33;;;;;;;9.60;1.70;;;25.20;73.90;;;;;;4996891;28;20014;-70
2022/01/11 00:57:00;;;;;;;8.77;2.15;;;25.20;74.00;;;;;;4988770;28;20551;-71
2022/01/11 00:59:26;;;;;;;10.48;1.40;;;25.20;74.00;;;;;;4990264;28;20499;-73
2022/01/11 01:01:53;;;;;;;5.35;1.20;;;25.10;74.00;;;;;;4989981;28;20033;-71
2022/01/11 01:04:19;;;;;;;4.13;1.40;;;25.10;74.10;;;;;;4995958;28;20034;-72
2022/01/11 01:06:46;;;;;;;5.28;0.98;;;25.10;74.10;;;;;;4990660;28;20015;-69
2022/01/11 01:09:13;;;;;;;2.22;1.30;;;25.10;74.10;;;;;;4996222;28;20030;-72
2022/01/11 01:11:43;;;;;;;2.85;0.73;;;25.10;74.10;;;;;;4992641;28;20084;-70
2022/01/11 01:14:10;;;;;;;3.40;1.33;;;25.10;74.10;;;;;;4992595;28;20833;-69
2022/01/11 01:16:37;;;;;;;2.65;0.80;;;25.10;74.20;;;;;;4993393;28;20026;-73
2022/01/11 01:19:04;;;;;;;5.13;1.40;;;25.10;74.30;;;;;;4991039;28;20033;-69
2022/01/11 01:21:36;;;;;;;2.95;0.95;;;25.10;74.30;;;;;;4985580;28;20109;-69
2022/01/11 01:24:05;;;;;;;2.60;1.30;;;25.10;74.40;;;;;;4988718;28;20030;-69
2022/01/11 01:26:31;;;;;;;4.35;1.42;;;25.10;74.40;;;;;;5006557;28;20081;-72
2022/01/11 01:28:59;;;;;;;12.40;1.60;;;25.10;74.40;;;;;;4987145;28;20085;-72
2022/01/11 01:31:27;;;;;;;4.50;1.40;;;25.00;74.40;;;;;;4995261;28;20038;-74
2022/01/11 01:33:55;;;;;;;21.63;2.33;;;25.10;74.50;;;;;;4990686;28;20038;-74
2022/01/11 01:36:23;;;;;;;5.82;1.65;;;25.00;74.50;;;;;;5000807;28;20481;-72
2022/01/11 01:38:50;;;;;;;5.07;1.92;;;25.00;74.40;;;;;;4992381;28;20105;-72
2022/01/11 01:41:19;;;;;;;4.45;1.83;;;25.00;74.40;;;;;;4993500;28;20555;-72
2022/01/11 01:43:50;;;;;;;8.45;2.70;;;25.00;74.30;;;;;;4987293;28;20041;-72
2022/01/11 01:46:18;;;;;;;6.28;1.75;;;25.00;74.30;;;;;;4992014;28;20026;-73
2022/01/11 01:48:45;;;;;;;4.15;1.70;;;25.00;74.20;;;;;;4992138;28;20026;-71
2022/01/11 01:51:12;;;;;;;5.80;2.22;;;25.00;74.30;;;;;;4998421;28;20042;-75
2022/01/11 01:53:45;;;;;;;7.22;2.20;;;24.90;74.20;;;;;;4992295;28;20425;-70
2022/01/11 01:56:12;;;;;;;3.33;2.38;;;24.90;74.20;;;;;;4992642;28;20377;-73
2022/01/11 01:58:39;;;;;;;13.40;3.22;;;24.90;74.20;;;;;;4990746;28;20018;-75
2022/01/11 02:01:06;;;;;;;9.00;2.35;;;24.90;74.30;;;;;;4996786;28;20062;-75
2022/01/11 02:03:39;;;;;;;8.48;2.40;;;24.90;74.30;;;;;;5001559;28;20539;-74
2022/01/11 02:06:08;;;;;;;4.28;1.88;;;24.90;74.50;;;;;;4996688;28;20023;-75
2022/01/11 02:08:35;;;;;;;6.20;1.90;;;24.90;74.50;;;;;;5000124;28;20175;-75
2022/01/11 02:11:02;;;;;;;7.88;1.70;;;24.90;74.60;;;;;;4992159;28;20023;-75
2022/01/11 02:13:29;;;;;;;4.00;1.70;;;24.80;74.60;;;;;;5005659;28;20701;-76
2022/01/11 02:15:57;;;;;;;8.52;1.77;;;24.80;74.60;;;;;;4992823;28;20105;-73
2022/01/11 02:18:25;;;;;;;4.15;2.50;;;24.80;74.60;;;;;;5000067;28;20125;-73
2022/01/11 02:20:56;;;;;;;3.33;1.13;;;24.80;74.60;;;;;;4992363;28;20500;-75
2022/01/11 02:23:22;;;;;;;4.35;1.60;;;24.80;74.60;;;;;;4994072;28;20026;-75
2022/01/11 02:25:50;;;;;;;3.47;1.70;;;24.80;74.60;;;;;;4999328;28;20497;-75
2022/01/11 02:28:19;;;;;;;8.27;2.03;;;24.80;74.70;;;;;;4995853;28;20030;-75
2022/01/11 02:30:45;;;;;;;3.28;1.52;;;24.80;74.70;;;;;;4994521;28;20554;-73
2022/01/11 02:33:34;;;;;;;4.28;1.95;;;24.90;74.70;;;;;;4995101;28;20030;-74
2022/01/11 02:36:04;;;;;;;6.85;2.70;;;24.80;74.70;;;;;;4997375;28;20493;-75
2022/01/11 02:38:32;;;;;;;5.55;1.50;;;24.80;74.80;;;;;;4988790;28;20481;-73
2022/01/11 02:40:58;;;;;;;2.05;1.48;;;24.80;74.80;;;;;;4994382;28;20023;-74
2022/01/11 02:43:26;;;;;;;10.02;1.95;;;24.80;74.80;;;;;;4996181;28;20090;-75
2022/01/11 02:45:52;;;;;;;6.57;2.03;;;24.80;74.80;;;;;;4992958;28;20512;-75
2022/01/11 02:48:21;;;;;;;12.48;2.33;;;24.80;74.80;;;;;;4996275;28;20022;-75
2022/01/11 02:50:48;;;;;;;7.75;1.75;;;24.80;74.80;;;;;;4994112;28;20481;-73
2022/01/11 02:53:15;;;;;;;6.07;1.45;;;24.80;74.80;;;;;;4998103;28;20037;-72
2022/01/11 02:55:43;;;;;;;13.90;5.20;;;24.80;74.80;;;;;;4996936;28;20035;-74
2022/01/11 02:58:11;;;;;;;24.33;14.98;;;24.80;74.90;;;;;;4997914;28;20019;-79
2022/01/11 03:00:41;;;;;;;28.15;14.68;;;24.80;74.80;;;;;;4993988;28;20355;-72
2022/01/11 03:03:13;;;;;;;48.80;11.95;;;24.80;74.80;;;;;;4997348;28;20022;-72
2022/01/11 03:05:47;;;;;;;30.10;8.68;;;24.70;74.70;;;;;;4988533;28;20422;-75
2022/01/11 03:08:16;;;;;;;20.27;6.20;;;24.80;75.00;;;;;;4994147;28;20030;-72
2022/01/11 03:10:42;;;;;;;19.88;4.88;;;24.80;75.20;;;;;;4995204;28;20026;-71
2022/01/11 03:13:10;;;;;;;17.05;3.58;;;24.70;75.30;;;;;;4993203;28;20035;-75
2022/01/11 03:15:38;;;;;;;42.85;4.35;;;24.70;75.30;;;;;;4992601;28;20022;-75
2022/01/11 03:18:06;;;;;;;34.70;4.88;;;24.70;75.40;;;;;;4998529;28;20035;-75
2022/01/11 03:20:35;;;;;;;35.15;4.63;;;24.70;75.30;;;;;;4995668;28;20019;-74
2022/01/11 03:23:03;;;;;;;12.80;2.42;;;24.70;75.10;;;;;;4996934;28;20027;-74
2022/01/11 03:25:29;;;;;;;11.63;2.55;;;24.70;75.10;;;;;;4991326;28;20384;-74
2022/01/11 03:27:56;;;;;;;18.30;3.20;;;24.70;75.10;;;;;;4991920;28;20030;-73
2022/01/11 03:30:23;;;;;;;19.80;2.58;;;24.70;75.10;;;;;;4995286;28;20084;-74
2022/01/11 03:32:50;;;;;;;15.60;4.43;;;24.70;75.00;;;;;;4991686;28;20489;-73
2022/01/11 03:35:18;;;;;;;13.68;3.72;;;24.70;74.90;;;;;;4998036;28;20030;-73
2022/01/11 03:37:46;;;;;;;20.92;3.25;;;24.60;74.80;;;;;;4990092;28;20077;-74
2022/01/11 03:40:20;;;;;;;6.22;1.98;;;24.60;74.70;;;;;;5005106;28;20069;-74
2022/01/11 03:42:48;;;;;;;20.98;2.95;;;24.60;74.50;;;;;;4994483;28;20053;-75
2022/01/11 03:45:15;;;;;;;15.65;3.45;;;24.60;74.40;;;;;;5001769;28;20034;-75
2022/01/11 03:47:42;;;;;;;22.40;3.47;;;24.50;74.90;;;;;;4990625;28;20429;-74
2022/01/11 03:50:55;;;;;;;22.42;3.63;;;24.40;75.10;;;;;;4998721;28;20030;-75
2022/01/11 03:53:31;;;;;;;34.08;13.30;;;24.40;75.10;;;;;;4996451;28;20121;-72
2022/01/11 03:58:26;;;;;;;42.80;10.57;;;24.40;75.30;;;;;;5001568;28;20388;-69
2022/01/11 04:00:54;;;;;;;24.20;7.35;;;24.40;75.20;;;;;;4992361;28;20426;-72
2022/01/11 04:03:26;;;;;;;33.92;6.88;;;24.30;75.20;;;;;;4993210;28;20025;-71
2022/01/11 04:05:54;;;;;;;26.52;7.20;;;24.40;75.30;;;;;;4994143;28;20023;-71
2022/01/11 04:08:23;;;;;;;30.60;5.90;;;24.30;75.30;;;;;;4995477;28;20496;-72
2022/01/11 04:10:49;;;;;;;13.50;4.18;;;24.30;75.20;;;;;;4988549;28;20027;-72
2022/01/11 04:13:16;;;;;;;16.20;3.70;;;24.40;75.30;;;;;;4995207;28;20068;-74
2022/01/11 04:15:43;;;;;;;54.42;7.45;;;24.30;75.20;;;;;;4991162;28;20033;-73
2022/01/11 04:18:09;;;;;;;37.33;5.13;;;24.30;75.30;;;;;;4988277;28;20023;-71
2022/01/11 04:20:35;;;;;;;46.95;14.50;;;24.30;75.50;;;;;;4997951;28;20084;-72
2022/01/11 04:23:02;;;;;;;62.47;31.42;;;24.30;75.70;;;;;;4992753;28;20037;-72
2022/01/11 04:25:29;;;;;;;49.50;24.35;;;24.40;75.90;;;;;;4997356;28;20018;-71
2022/01/11 04:27:55;;;;;;;31.45;13.57;;;24.40;76.00;;;;;;4994279;28;20027;-74
2022/01/11 04:30:22;;;;;;;25.65;8.32;;;24.30;76.00;;;;;;4994530;28;20036;-75
2022/01/11 04:32:48;;;;;;;26.10;14.50;;;24.40;76.00;;;;;;4990222;28;20386;-70
2022/01/11 04:35:16;;;;;;;21.60;12.23;;;24.30;76.10;;;;;;4997951;28;20057;-70
2022/01/11 04:37:44;;;;;;;11.80;9.68;;;24.30;76.10;;;;;;4986359;28;20017;-73
2022/01/11 04:40:12;;;;;;;20.40;8.95;;;24.30;75.90;;;;;;4998942;28;20049;-70
2022/01/11 04:42:39;;;;;;;19.42;4.53;;;24.40;75.90;;;;;;4990846;28;20033;-71
2022/01/11 04:45:07;;;;;;;14.88;3.50;;;24.40;75.90;;;;;;4998716;28;20489;-73
2022/01/11 04:47:34;;;;;;;19.13;4.10;;;24.40;75.80;;;;;;4991353;28;20031;-71
2022/01/11 04:50:00;;;;;;;31.40;3.78;;;24.40;75.80;;;;;;5010231;28;20405;-72
2022/01/11 04:52:27;;;;;;;22.98;4.55;;;24.40;75.70;;;;;;4989229;28;20077;-72
2022/01/11 04:54:53;;;;;;;13.63;4.20;;;24.40;75.60;;;;;;4997289;28;20019;-71
2022/01/11 04:57:20;;;;;;;21.98;3.50;;;24.40;75.50;;;;;;4992571;28;20041;-71
2022/01/11 04:59:46;;;;;;;25.10;3.60;;;24.40;75.30;;;;;;4993790;28;20109;-71
2022/01/11 05:02:13;;;;;;;14.55;3.55;;;24.40;75.20;;;;;;4987459;28;20019;-72
2022/01/11 05:04:39;;;;;;;7.13;2.72;;;24.40;75.10;;;;;;4981805;28;20258;-72
2022/01/11 05:07:06;;;;;;;23.00;2.88;;;24.40;75.10;;;;;;4983021;28;20508;-72
2022/01/11 05:09:32;;;;;;;18.80;4.25;;;24.40;75.10;;;;;;4977822;28;20023;-72
2022/01/11 05:11:58;;;;;;;13.57;3.20;;;24.40;75.20;;;;;;4979227;28;20034;-71
2022/01/11 05:14:25;;;;;;;19.73;4.20;;;24.40;75.10;;;;;;4979158;28;20103;-71
2022/01/11 05:16:51;;;;;;;19.50;3.08;;;24.40;75.10;;;;;;4979209;28;20030;-71
2022/01/11 05:19:18;;;;;;;12.25;2.70;;;24.40;75.00;;;;;;4978736;28;20048;-72
2022/01/11 05:21:45;;;;;;;12.20;2.47;;;24.40;74.90;;;;;;4977648;28;20663;-72
2022/01/11 05:24:12;;;;;;;14.05;3.35;;;24.40;74.80;;;;;;4981744;28;20030;-72
2022/01/11 05:26:39;;;;;;;20.73;4.45;;;24.40;74.80;;;;;;4981071;28;20541;-73
2022/01/11 05:29:05;;;;;;;28.80;5.00;;;24.40;74.80;;;;;;4982271;28;20444;-72
2022/01/11 05:31:34;;;;;;;38.47;6.18;;;24.40;74.90;;;;;;4976362;28;20080;-68
2022/01/11 05:34:02;;;;;;;82.68;28.70;;;24.40;75.00;;;;;;4978566;28;20022;-69
2022/01/11 05:36:28;;;;;;;62.10;42.45;;;24.40;75.40;;;;;;4982517;28;20019;-72
2022/01/11 05:38:55;;;;;;;55.55;36.67;;;24.40;75.60;;;;;;4979816;28;20030;-70
2022/01/11 05:41:21;;;;;;;38.65;19.90;;;24.40;75.60;;;;;;4982123;28;20473;-69
2022/01/11 05:43:48;;;;;;;18.75;10.88;;;24.40;75.70;;;;;;4977037;28;20089;-68
2022/01/11 05:46:14;;;;;;;17.17;6.70;;;24.50;75.80;;;;;;4992559;28;20076;-69
2022/01/11 05:48:44;;;;;;;10.10;3.85;;;24.40;75.90;;;;;;4985555;28;20014;-70
2022/01/11 05:51:12;;;;;;;18.05;3.47;;;24.50;76.00;;;;;;4965803;28;20872;-69
2022/01/11 05:53:38;;;;;;;10.55;2.15;;;24.50;75.90;;;;;;4984875;28;20027;-70
2022/01/11 05:56:05;;;;;;;6.70;2.08;;;24.50;75.70;;;;;;4993970;28;20023;-70
2022/01/11 05:58:32;;;;;;;12.15;9.00;;;24.50;75.60;;;;;;4990133;28;20025;-73
2022/01/11 06:00:58;;;;;;;24.38;21.67;;;24.50;75.60;;;;;;4989173;28;20508;-69
2022/01/11 06:03:25;;;;;;;19.40;17.45;;;24.50;75.50;;;;;;4989742;28;20058;-69
2022/01/11 06:06:31;;;;;;;11.95;10.70;;;24.50;75.60;;;;;;4992885;28;20440;-69
2022/01/11 06:09:17;;;;;;;;;;;24.60;75.60;;;;;;4988945;28;20058;-72
2022/01/11 06:12:23;;;;;;;11.02;4.90;;;24.60;75.60;;;;;;4992847;28;20629;-73
2022/01/11 06:15:09;;;;;;;;;;;24.70;75.60;;;;;;4987774;28;20078;-72
2022/01/11 06:18:15;;;;;;;6.93;3.17;;;24.70;75.50;;;;;;4988327;28;19912;-71
2022/01/11 06:21:01;;;;;;;;;;;24.80;75.40;;;;;;4990904;28;20481;-69
2022/01/11 06:23:27;;;;;;;3.33;1.85;;;24.90;75.10;;;;;;4988711;28;19910;-71
2022/01/11 06:25:54;;;;;;;7.15;1.65;;;24.90;74.50;;;;;;4992794;28;20118;-70
2022/01/11 06:28:20;;;;;;;6.18;1.73;;;24.90;74.40;;;;;;4986326;28;20389;-70
2022/01/11 06:30:47;;;;;;;3.92;1.38;;;24.90;74.30;;;;;;4988923;28;20389;-69
2022/01/11 06:33:14;;;;;;;5.22;1.63;;;25.00;74.20;;;;;;4991203;28;20088;-75
2022/01/11 06:35:41;;;;;;;11.73;1.95;;;25.00;74.00;;;;;;4989154;28;20557;-76
2022/01/11 06:38:07;;;;;;;11.70;1.80;;;25.00;73.80;;;;;;4990498;28;20022;-71
2022/01/11 06:40:34;;;;;;;9.90;1.95;;;25.10;73.60;;;;;;4987099;28;20019;-70
2022/01/11 06:43:00;;;;;;;4.25;1.40;;;25.10;73.00;;;;;;4990637;28;20022;-73
2022/01/11 06:45:28;;;;;;;21.08;3.05;;;25.10;72.50;;;;;;4991133;28;20133;-69
2022/01/11 06:47:56;;;;;;;22.70;15.35;;;25.10;72.20;;;;;;4990261;28;20037;-68
2022/01/11 06:50:23;;;;;;;25.75;8.05;;;25.10;71.80;;;;;;4994717;28;20072;-68
2022/01/11 06:52:49;;;;;;;8.73;3.80;;;25.10;71.10;;;;;;4988087;28;20576;-71
2022/01/11 06:55:17;;;;;;;16.02;3.70;;;25.10;70.80;;;;;;5001541;28;20027;-70
2022/01/11 06:57:43;;;;;;;5.10;1.38;;;25.10;70.70;;;;;;4993516;28;20031;-73
2022/01/11 07:00:10;;;;;;;14.25;1.77;;;25.10;70.30;;;;;;4986472;28;20101;-70
2022/01/11 07:02:37;;;;;;;4.22;1.20;;;25.10;70.00;;;;;;5001381;28;20056;-73
2022/01/11 07:05:05;;;;;;;12.27;1.50;;;25.10;69.90;;;;;;4993550;28;20028;-73
2022/01/11 07:07:31;;;;;;;9.73;2.30;;;25.10;69.90;;;;;;4998164;28;20080;-72
2022/01/11 07:09:58;;;;;;;14.25;1.88;;;25.10;70.00;;;;;;4989182;28;20046;-73
2022/01/11 07:12:25;;;;;;;9.93;1.95;;;25.10;70.00;;;;;;4996081;28;20084;-69
2022/01/11 07:14:52;;;;;;;7.90;1.55;;;25.10;69.90;;;;;;4991148;28;20033;-71
2022/01/11 07:17:20;;;;;;;23.67;3.38;;;25.10;70.00;;;;;;4990586;28;20030;-72
2022/01/11 07:19:46;;;;;;;11.00;2.38;;;25.10;70.30;;;;;;4994531;28;20089;-72
2022/01/11 07:22:13;;;;;;;19.48;2.97;;;25.10;70.50;;;;;;4995154;28;20114;-69
2022/01/11 07:24:40;;;;;;;65.55;7.43;;;25.20;70.60;;;;;;4994869;28;20076;-71
2022/01/11 07:27:06;;;;;;;52.05;6.95;;;25.20;70.90;;;;;;4993720;28;20022;-71
2022/01/11 07:29:33;;;;;;;23.55;3.45;;;25.20;71.10;;;;;;4999551;28;20022;-72
2022/01/11 07:31:59;;;;;;;11.88;3.25;;;25.20;71.20;;;;;;4992125;28;20401;-72
2022/01/11 07:34:26;;;;;;;12.30;1.75;;;25.20;71.20;;;;;;4997492;28;20437;-72
2022/01/11 07:36:52;;;;;;;8.50;1.77;;;25.20;71.00;;;;;;4988973;28;20057;-71
2022/01/11 07:39:19;;;;;;;11.75;1.95;;;25.20;70.80;;;;;;4997229;28;20084;-71
2022/01/11 07:41:46;;;;;;;11.15;2.28;;;25.30;70.70;;;;;;4994010;28;20485;-71
2022/01/11 07:44:12;;;;;;;24.65;3.13;;;25.30;70.70;;;;;;4998773;28;20488;-70
2022/01/11 07:46:42;;;;;;;15.30;2.78;;;25.30;70.80;;;;;;4988804;28;20080;-71
2022/01/11 07:49:09;;;;;;;6.03;1.38;;;25.30;70.70;;;;;;4992878;28;20110;-71
2022/01/11 07:51:36;;;;;;;8.60;1.20;;;25.40;70.30;;;;;;4997547;28;20104;-72
2022/01/11 07:54:03;;;;;;;4.90;1.60;;;25.40;70.00;;;;;;4994550;28;20026;-73
2022/01/11 07:56:30;;;;;;;3.40;1.10;;;25.40;70.00;;;;;;4990504;28;20037;-71
2022/01/11 07:58:56;;;;;;;5.22;1.52;;;25.40;69.70;;;;;;4994065;28;20507;-70
2022/01/11 08:01:22;;;;;;;8.77;1.77;;;25.40;69.40;;;;;;4996732;28;20484;-71
2022/01/11 08:03:49;;;;;;;11.57;1.63;;;25.50;69.30;;;;;;4992321;28;20047;-71
2022/01/11 08:06:16;;;;;;;10.32;1.75;;;25.50;69.30;;;;;;4998430;28;20105;-71
2022/01/11 08:08:42;;;;;;;10.93;1.27;;;25.50;69.00;;;;;;4991273;28;20547;-73
2022/01/11 08:11:10;;;;;;;8.38;1.48;;;25.60;68.90;;;;;;4997761;28;20613;-70
2022/01/11 08:13:38;;;;;;;7.30;1.38;;;25.60;69.10;;;;;;4990285;28;20038;-72
2022/01/11 08:16:05;;;;;;;5.00;1.10;;;25.60;69.20;;;;;;4995516;28;20113;-72
2022/01/11 08:18:31;;;;;;;6.13;1.00;;;25.60;69.30;;;;;;4994266;28;20440;-71
2022/01/11 08:20:58;;;;;;;4.93;0.98;;;25.60;69.10;;;;;;4995269;28;20026;-73
2022/01/11 08:23:27;;;;;;;2.80;0.80;;;25.60;68.70;;;;;;4993504;28;20446;-70
2022/01/11 08:25:53;;;;;;;5.45;1.10;;;25.70;68.40;;;;;;4996922;28;20034;-72
2022/01/11 08:28:20;;;;;;;3.83;0.70;;;25.70;68.80;;;;;;4997442;28;20084;-72
2022/01/11 08:30:46;;;;;;;15.13;2.10;;;25.80;68.90;;;;;;4989423;28;20053;-71
2022/01/11 08:33:13;;;;;;;27.58;2.90;;;25.80;68.70;;;;;;4991441;28;20576;-71
2022/01/11 08:35:40;;;;;;;19.02;2.53;;;25.80;68.50;;;;;;4997457;28;20097;-72
2022/01/11 08:38:06;;;;;;;16.95;2.30;;;25.80;68.40;;;;;;4995649;28;20488;-72
2022/01/11 08:40:33;;;;;;;20.05;2.42;;;25.90;68.20;;;;;;4990660;28;20105;-73
2022/01/11 08:43:02;;;;;;;9.45;1.35;;;25.90;68.10;;;;;;4996254;28;20081;-71
2022/01/11 08:45:29;;;;;;;7.88;1.23;;;25.90;68.00;;;;;;4988372;28;20058;-74
2022/01/11 08:47:56;;;;;;;3.00;1.00;;;26.00;68.10;;;;;;4993006;28;20030;-71
2022/01/11 08:50:22;;;;;;;3.25;1.27;;;26.00;68.00;;;;;;4993850;28;20061;-71
2022/01/11 08:52:50;;;;;;;6.25;1.42;;;26.00;67.90;;;;;;4974995;28;20394;-72
2022/01/11 08:55:17;;;;;;;5.70;1.00;;;26.00;67.90;;;;;;4988360;28;20038;-71
2022/01/11 08:57:44;;;;;;;3.78;1.30;;;26.10;68.00;;;;;;4995610;28;20018;-71
2022/01/11 09:00:18;;;;;;;2.55;1.10;;;26.10;68.20;;;;;;4991336;28;20026;-72
2022/01/11 09:02:51;;;;;;;5.82;0.90;;;26.20;68.30;;;;;;4997418;28;20037;-70
2022/01/11 09:05:18;;;;;;;4.72;1.35;;;26.20;68.00;;;;;;4995141;28;20069;-71
2022/01/11 09:07:45;;;;;;;2.15;1.20;;;26.20;67.70;;;;;;4993070;28;20482;-72
2022/01/11 09:10:12;;;;;;;4.70;1.00;;;26.30;67.80;;;;;;4998360;28;20527;-71
2022/01/11 09:12:39;;;;;;;5.30;1.23;;;26.30;67.80;;;;;;5000410;28;20038;-71
2022/01/11 09:15:08;;;;;;;7.75;1.10;;;26.40;67.30;;;;;;4996132;28;20405;-72
2022/01/11 09:17:35;;;;;;;2.35;0.75;;;26.40;66.90;;;;;;4991088;28;20023;-72
2022/01/11 09:20:05;;;;;;;5.45;1.27;;;26.50;66.70;;;;;;5004067;28;20027;-71
2022/01/11 09:22:32;;;;;;;3.45;1.50;;;26.50;66.40;;;;;;4975746;28;20030;-71
2022/01/11 09:24:59;;;;;;;43.40;3.17;;;26.60;66.10;;;;;;4995095;28;20119;-73
2022/01/11 09:27:25;;;;;;;26.55;2.60;;;26.60;66.00;;;;;;4988709;28;20025;-72
2022/01/11 09:29:52;;;;;;;11.02;2.95;;;26.70;66.20;;;;;;4994267;28;20076;-74
2022/01/11 09:32:18;;;;;;;6.25;0.82;;;26.70;65.70;;;;;;4995821;28;20393;-71
2022/01/11 09:34:45;;;;;;;6.25;1.33;;;26.80;65.40;;;;;;4998617;28;20058;-72
2022/01/11 09:37:12;;;;;;;4.80;0.95;;;26.80;65.10;;;;;;4994148;28;20327;-70
2022/01/11 09:39:39;;;;;;;7.65;1.13;;;26.80;65.40;;;;;;4993028;28;20073;-72
2022/01/11 09:42:07;;;;;;;2.45;0.98;;;26.80;65.50;;;;;;4996985;28;20018;-71
2022/01/11 09:44:38;;;;;;;2.72;0.82;;;26.90;65.80;;;;;;4995456;28;20033;-71
2022/01/11 09:47:09;;;;;;;4.60;1.08;;;26.90;66.10;;;;;;4991491;28;20022;-71
2022/01/11 09:49:35;;;;;;;2.55;1.08;;;26.90;66.10;;;;;;4997106;28;20011;-72
2022/01/11 09:52:07;;;;;;;5.18;1.17;;;27.00;66.20;;;;;;4995566;28;20038;-71
2022/01/11 09:54:43;;;;;;;2.40;1.02;;;27.00;65.90;;;;;;4986867;28;20026;-71
2022/01/11 09:57:10;;;;;;;6.28;1.30;;;27.10;65.70;;;;;;4998086;28;20026;-73
2022/01/11 09:59:37;;;;;;;2.80;1.08;;;27.10;65.40;;;;;;4991446;28;20500;-70
2022/01/11 10:02:04;;;;;;;4.20;1.42;;;27.20;65.10;;;;;;4998409;28;20046;-70
2022/01/11 10:04:34;;;;;;;4.55;1.45;;;27.20;64.90;;;;;;4990282;28;20068;-71
2022/01/11 10:07:06;;;;;;;6.20;1.38;;;27.30;64.90;;;;;;4996947;28;20022;-71
2022/01/11 10:09:48;;;;;;;10.30;3.25;;;27.30;65.30;;;;;;4992526;28;20477;-72
2022/01/11 10:12:16;;;;;;;3.80;1.40;;;27.40;65.30;;;;;;4990454;28;20038;-73
2022/01/11 10:14:55;;;;;;;3.97;2.47;;;27.40;65.60;;;;;;4995835;28;20030;-71
2022/01/11 10:17:27;;;;;;;4.63;1.95;;;27.40;65.60;;;;;;4998026;28;20116;-71
2022/01/11 10:20:34;;;;;;;4.10;2.13;;;27.40;65.50;;;;;;4994507;28;20030;-71
2022/01/11 10:23:07;;;;;;;4.07;1.70;;;27.40;65.60;;;;;;4952598;28;20027;-71
2022/01/11 10:25:45;;;;;;;5.50;1.48;;;27.40;65.30;;;;;;4950205;28;20024;-70
2022/01/11 10:28:12;;;;;;;5.57;1.50;;;27.50;65.10;;;;;;4977313;28;20085;-72
2022/01/11 10:30:40;;;;;;;8.75;1.33;;;27.50;64.80;;;;;;4994894;28;20011;-71
2022/01/11 10:33:09;;;;;;;6.35;1.40;;;27.60;64.60;;;;;;4982877;28;20493;-72
2022/01/11 10:35:42;;;;;;;34.40;5.80;;;27.60;64.10;;;;;;4991716;28;20050;-73
2022/01/11 10:38:11;;;;;;;13.63;1.90;;;27.70;64.10;;;;;;4996997;28;20030;-73
2022/01/11 10:40:44;;;;;;;3.58;1.00;;;27.70;63.80;;;;;;4991870;28;20323;-71
2022/01/11 10:43:16;;;;;;;12.65;1.88;;;27.70;63.60;;;;;;4997624;28;20030;-71
2022/01/11 10:45:45;;;;;;;3.80;1.10;;;27.80;63.60;;;;;;4996497;28;20025;-71
2022/01/11 10:48:18;;;;;;;5.68;1.23;;;27.80;63.20;;;;;;4996365;28;20019;-72
2022/01/11 10:50:49;;;;;;;4.88;1.73;;;27.80;62.70;;;;;;4989877;28;20720;-71
2022/01/11 10:53:21;;;;;;;3.42;1.05;;;27.80;62.30;;;;;;4997672;28;20122;-72
2022/01/11 10:55:54;;;;;;;3.75;1.85;;;27.80;62.10;;;;;;4996280;28;20058;-72
2022/01/11 10:58:22;;;;;;;5.25;1.48;;;27.90;62.10;;;;;;4991652;28;20029;-71
2022/01/11 11:00:52;;;;;;;5.68;0.90;;;27.90;62.00;;;;;;4995509;28;20030;-72
2022/01/11 11:03:38;;;;;;;7.75;2.15;;;28.00;61.80;;;;;;4992075;28;20469;-70
2022/01/11 11:06:11;;;;;;;12.27;2.00;;;28.00;61.60;;;;;;4995021;28;20108;-71
2022/01/11 11:08:55;;;;;;;6.03;2.40;;;28.00;61.10;;;;;;4996656;28;20033;-71
2022/01/11 11:11:23;;;;;;;6.07;2.03;;;28.00;60.70;;;;;;4996235;28;20026;-71
2022/01/11 11:13:51;;;;;;;13.00;2.95;;;28.00;60.70;;;;;;4990587;28;20683;-72
2022/01/11 11:16:25;;;;;;;6.60;1.90;;;27.90;60.60;;;;;;4996098;28;20022;-71
2022/01/11 11:18:57;;;;;;;14.95;2.28;;;27.80;60.60;;;;;;4999922;28;20046;-71
2022/01/11 11:21:37;;;;;;;39.03;5.10;;;27.80;60.20;;;;;;4995518;28;20116;-71
2022/01/11 11:24:08;;;;;;;28.10;3.95;;;27.70;60.20;;;;;;4993475;28;20030;-71
2022/01/11 11:26:39;;;;;;;13.95;2.28;;;27.60;60.30;;;;;;4994982;28;20038;-71
2022/01/11 11:29:08;;;;;;;7.88;2.55;;;27.60;60.40;;;;;;4995580;28;20391;-71
2022/01/11 11:31:36;;;;;;;7.13;1.90;;;27.60;60.30;;;;;;4991929;28;20030;-71
2022/01/11 11:34:04;;;;;;;6.15;1.95;;;27.60;60.00;;;;;;4990013;28;20026;-71
2022/01/11 11:36:32;;;;;;;17.80;4.75;;;27.60;60.10;;;;;;4987546;28;20022;-70
2022/01/11 11:39:04;;;;;;;11.57;2.50;;;27.60;59.90;;;;;;4992644;28;20057;-70
2022/01/11 11:41:33;;;;;;;12.73;2.92;;;27.60;59.90;;;;;;4991226;28;20033;-69
2022/01/11 11:44:14;;;;;;;9.50;2.72;;;27.70;59.30;;;;;;4996494;28;20451;-74
2022/01/11 11:46:43;;;;;;;9.93;2.47;;;27.70;58.90;;;;;;4991879;28;20023;-74
2022/01/11 11:49:11;;;;;;;39.25;5.50;;;27.80;58.70;;;;;;4991367;28;20101;-71
2022/01/11 11:51:42;;;;;;;20.90;3.45;;;27.80;59.40;;;;;;4985077;28;20101;-71
2022/01/11 11:54:20;;;;;;;12.27;2.65;;;27.90;59.00;;;;;;4993125;28;21340;-82
2022/01/11 11:56:59;;;;;;;5.93;1.90;;;27.90;58.60;;;;;;4999418;28;20069;-77
2022/01/11 11:59:26;;;;;;;8.10;2.80;;;28.00;58.30;;;;;;4990494;28;20488;-74
2022/01/11 12:01:58;;;;;;;15.18;3.63;;;28.00;58.00;;;;;;4992226;28;20038;-78
2022/01/11 12:04:31;;;;;;;8.30;2.42;;;28.10;57.80;;;;;;4993493;28;20029;-71
2022/01/11 12:07:00;;;;;;;11.40;2.90;;;28.20;57.40;;;;;;4987023;28;20040;-75
2022/01/11 12:09:32;;;;;;;10.52;2.20;;;28.20;57.10;;;;;;5001320;28;20021;-72
2022/01/11 12:12:00;;;;;;;13.50;3.50;;;28.30;56.50;;;;;;4988246;28;20046;-72
2022/01/11 12:14:31;;;;;;;8.82;2.90;;;28.40;56.00;;;;;;4989154;28;20022;-75
2022/01/11 12:17:22;;;;;;;11.35;2.83;;;28.40;55.70;;;;;;4984014;28;20027;-74
2022/01/11 12:19:54;;;;;;;11.50;2.90;;;28.40;54.90;;;;;;4988186;28;20031;-71
2022/01/11 12:22:31;;;;;;;7.50;2.60;;;28.50;55.00;;;;;;4988264;28;20036;-70
2022/01/11 12:25:02;;;;;;;25.10;3.28;;;28.50;55.30;;;;;;4990088;28;20026;-71
2022/01/11 12:27:29;;;;;;;32.60;7.32;;;28.60;55.00;;;;;;4988887;28;20120;-70
2022/01/11 12:30:06;;;;;;;15.70;5.82;;;28.60;54.40;;;;;;4987293;28;20018;-72
2022/01/11 12:32:38;;;;;;;20.20;5.18;;;28.70;54.10;;;;;;4986711;28;20038;-70
2022/01/11 12:35:22;;;;;;;85.00;10.63;;;28.70;53.70;;;;;;4989419;28;20026;-70
2022/01/11 12:37:49;;;;;;;59.83;7.63;;;28.70;53.70;;;;;;4991189;28;20433;-70
2022/01/11 12:40:40;;;;;;;22.92;5.45;;;28.80;54.00;;;;;;4991834;28;20503;-70
2022/01/11 12:43:07;;;;;;;16.58;3.55;;;28.80;53.40;;;;;;4991467;28;20022;-70
2022/01/11 12:46:00;;;;;;;31.40;6.30;;;28.80;53.10;;;;;;4989229;28;20046;-76
2022/01/11 12:48:46;;;;;;;17.58;3.50;;;28.90;53.10;;;;;;4980157;28;20038;-70
2022/01/11 12:51:25;;;;;;;19.42;3.22;;;28.90;53.10;;;;;;4996696;28;20062;-71
2022/01/11 12:54:13;;;;;;;20.10;4.18;;;28.90;53.30;;;;;;4984465;28;20398;-71
2022/01/11 12:56:40;;;;;;;37.65;7.60;;;28.90;53.20;;;;;;4986925;28;20023;-71
2022/01/11 12:59:08;;;;;;;20.10;5.70;;;28.90;53.00;;;;;;4996219;28;20358;-71